createdAt,value
2018-10-09T00:00:13.224Z,19.73
2018-10-09T00:02:41.859Z,19.60
2018-10-09T00:05:08.381Z,19.52
2018-10-09T00:07:36.802Z,19.48
2018-10-09T00:10:03.842Z,19.47
2018-10-09T00:12:30.325Z,19.46
2018-10-09T00:14:57.589Z,19.47
2018-10-09T00:17:25.710Z,19.48
2018-10-09T00:19:52.472Z,19.55
2018-10-09T00:22:18.960Z,19.78
2018-10-09T00:24:45.847Z,19.81
2018-10-09T00:27:12.378Z,19.74
2018-10-09T00:29:40.992Z,19.50
2018-10-09T00:34:40.240Z,19.12
2018-10-09T00:37:06.755Z,19.05
2018-10-09T00:39:33.198Z,19.12
2018-10-09T00:42:00.192Z,19.10
2018-10-09T00:44:26.687Z,19.06
2018-10-09T00:46:53.205Z,18.96
2018-10-09T00:49:22.835Z,18.86
2018-10-09T00:51:49.422Z,18.74
2018-10-09T01:14:31.919Z,18.74
2018-10-09T01:16:58.352Z,18.59
2018-10-09T01:19:24.816Z,18.54
2018-10-09T01:21:51.476Z,18.57
2018-10-09T01:24:17.944Z,18.59
2018-10-09T01:26:44.391Z,18.58
2018-10-09T01:29:10.901Z,18.46
2018-10-09T01:31:37.552Z,18.33
2018-10-09T01:34:04.103Z,18.23
2018-10-09T01:36:30.758Z,18.31
2018-10-09T01:38:57.367Z,18.32
2018-10-09T01:41:25.176Z,18.32
2018-10-09T01:43:53.224Z,18.48
2018-10-09T01:46:19.885Z,18.24
2018-10-09T01:48:46.603Z,17.92
2018-10-09T01:51:14.185Z,17.83
2018-10-09T01:53:40.887Z,17.82
2018-10-09T01:56:08.623Z,17.73
2018-10-09T01:58:35.645Z,17.80
2018-10-09T02:01:02.962Z,17.73
2018-10-09T02:03:30.182Z,17.76
2018-10-09T02:05:56.705Z,17.75
2018-10-09T02:08:23.249Z,17.85
2018-10-09T02:10:50.888Z,17.99
2018-10-09T02:13:17.665Z,17.99
2018-10-09T02:15:44.956Z,17.89
2018-10-09T02:18:12.053Z,17.76
2018-10-09T02:20:40.513Z,17.72
2018-10-09T02:23:08.210Z,17.45
2018-10-09T02:25:35.840Z,17.43
2018-10-09T02:28:02.607Z,17.54
2018-10-09T02:30:29.120Z,17.34
2018-10-09T02:32:56.054Z,17.31
2018-10-09T02:35:22.613Z,17.35
2018-10-09T02:37:49.100Z,17.31
2018-10-09T02:40:15.571Z,17.18
2018-10-09T02:45:14.132Z,17.14
2018-10-09T02:47:40.769Z,17.30
2018-10-09T02:50:09.802Z,17.24
2018-10-09T02:52:38.334Z,16.91
2018-10-09T02:55:05.957Z,17.05
2018-10-09T02:57:32.599Z,17.01
2018-10-09T02:59:59.278Z,17.05
2018-10-09T03:02:25.779Z,17.01
2018-10-09T03:04:52.380Z,17.18
2018-10-09T03:07:19.251Z,17.14
2018-10-09T03:09:45.930Z,17.07
2018-10-09T03:12:12.414Z,17.19
2018-10-09T03:14:40.021Z,17.19
2018-10-09T03:17:06.730Z,17.13
2018-10-09T03:19:33.214Z,16.93
2018-10-09T03:21:59.708Z,17.02
2018-10-09T03:24:26.193Z,17.09
2018-10-09T03:26:52.639Z,17.04
2018-10-09T03:29:19.184Z,16.85
2018-10-09T03:31:45.684Z,17.05
2018-10-09T03:34:12.195Z,17.05
2018-10-09T03:36:38.851Z,16.93
2018-10-09T03:39:05.352Z,16.85
2018-10-09T03:41:31.940Z,16.87
2018-10-09T03:43:58.557Z,16.85
2018-10-09T03:46:25.192Z,16.52
2018-10-09T03:48:51.867Z,16.91
2018-10-09T03:51:18.596Z,16.86
2018-10-09T03:53:45.133Z,16.89
2018-10-09T03:56:11.654Z,16.71
2018-10-09T03:58:38.141Z,16.84
2018-10-09T04:01:04.579Z,16.77
2018-10-09T04:03:31.139Z,16.70
2018-10-09T04:05:57.652Z,16.71
2018-10-09T04:08:24.674Z,16.71
2018-10-09T04:10:51.182Z,16.81
2018-10-09T04:13:17.735Z,16.85
2018-10-09T04:15:44.803Z,16.85
2018-10-09T04:18:11.674Z,16.67
2018-10-09T04:20:38.189Z,16.73
2018-10-09T04:23:04.721Z,16.84
2018-10-09T04:25:31.179Z,16.87
2018-10-09T04:27:57.731Z,16.92
2018-10-09T04:30:24.283Z,16.93
2018-10-09T04:32:50.787Z,16.82
2018-10-09T04:35:17.401Z,16.75
2018-10-09T04:37:44.017Z,16.73
2018-10-09T04:40:11.214Z,16.77
2018-10-09T04:42:37.749Z,16.62
2018-10-09T04:45:04.296Z,16.84
2018-10-09T04:47:30.793Z,17.02
2018-10-09T04:49:57.274Z,17.06
2018-10-09T04:52:24.516Z,16.97
2018-10-09T04:54:51.082Z,17.01
2018-10-09T04:57:17.608Z,17.21
2018-10-09T04:59:44.250Z,17.21
2018-10-09T05:02:11.351Z,17.01
2018-10-09T05:04:37.833Z,16.77
2018-10-09T05:07:04.499Z,16.92
2018-10-09T05:09:30.980Z,16.96
2018-10-09T05:11:57.452Z,16.95
2018-10-09T05:14:23.946Z,16.92
2018-10-09T05:16:50.458Z,16.81
2018-10-09T05:19:16.966Z,16.85
2018-10-09T05:21:43.448Z,17.20
2018-10-09T05:24:09.925Z,17.29
2018-10-09T05:26:36.879Z,17.29
2018-10-09T05:29:03.351Z,17.24
2018-10-09T05:31:30.002Z,17.16
2018-10-09T05:33:56.577Z,16.78
2018-10-09T05:36:23.093Z,16.92
2018-10-09T05:38:49.931Z,17.41
2018-10-09T05:41:16.412Z,17.64
2018-10-09T05:43:42.879Z,17.60
2018-10-09T05:46:09.507Z,17.55
2018-10-09T05:48:36.766Z,17.46
2018-10-09T05:51:03.351Z,17.51
2018-10-09T05:53:29.817Z,17.90
2018-10-09T05:55:56.288Z,17.68
2018-10-09T05:58:22.777Z,17.61
2018-10-09T06:00:49.258Z,17.59
2018-10-09T06:03:15.822Z,17.63
2018-10-09T06:05:42.627Z,17.61
2018-10-09T06:08:09.289Z,17.36
2018-10-09T06:10:35.777Z,17.11
2018-10-09T06:13:02.245Z,17.24
2018-10-09T06:15:28.809Z,17.41
2018-10-09T06:17:55.478Z,17.37
2018-10-09T06:20:22.010Z,17.45
2018-10-09T06:22:48.549Z,17.72
2018-10-09T06:25:15.011Z,17.92
2018-10-09T06:27:42.266Z,18.15
2018-10-09T06:30:08.733Z,18.25
2018-10-09T06:32:35.240Z,18.38
2018-10-09T06:35:05.701Z,18.62
2018-10-09T06:37:32.270Z,18.65
2018-10-09T06:39:58.836Z,18.68
2018-10-09T06:44:57.774Z,19.11
2018-10-09T06:47:24.388Z,19.21
2018-10-09T06:49:51.061Z,19.20
2018-10-09T06:52:17.593Z,19.07
2018-10-09T06:54:44.504Z,19.36
2018-10-09T06:57:11.161Z,19.61
2018-10-09T06:59:37.665Z,19.53
2018-10-09T07:02:04.260Z,19.59
2018-10-09T07:04:30.870Z,19.60
2018-10-09T07:06:57.504Z,19.36
2018-10-09T07:09:23.994Z,19.31
2018-10-09T07:11:50.694Z,19.59
2018-10-09T07:14:18.033Z,19.67
2018-10-09T07:16:44.603Z,19.56
2018-10-09T07:19:11.168Z,19.57
2018-10-09T07:21:37.655Z,19.49
2018-10-09T07:24:04.118Z,19.54
2018-10-09T07:26:30.637Z,19.39
2018-10-09T07:28:57.331Z,19.81
2018-10-09T07:31:23.808Z,19.76
2018-10-09T07:33:50.340Z,20.05
2018-10-09T07:38:48.814Z,20.25
2018-10-09T07:41:15.312Z,20.18
2018-10-09T07:43:41.773Z,20.12
2018-10-09T07:46:08.406Z,20.20
2018-10-09T07:48:34.944Z,20.06
2018-10-09T07:51:01.403Z,20.37
2018-10-09T07:53:27.920Z,20.48
2018-10-09T07:55:55.191Z,20.53
2018-10-09T07:58:21.658Z,20.76
2018-10-09T08:03:20.655Z,20.62
2018-10-09T08:05:47.217Z,20.47
2018-10-09T08:08:13.797Z,20.92
2018-10-09T08:10:40.342Z,20.64
2018-10-09T08:13:07.165Z,20.90
2018-10-09T08:15:33.700Z,21.04
2018-10-09T08:18:00.195Z,21.31
2018-10-09T08:20:26.669Z,21.64
2018-10-09T08:22:53.213Z,21.60
2018-10-09T08:25:19.810Z,21.41
2018-10-09T08:27:46.293Z,21.29
2018-10-09T08:30:12.802Z,21.60
2018-10-09T08:35:13.615Z,21.59
2018-10-09T08:40:13.145Z,21.75
2018-10-09T08:42:39.721Z,21.69
2018-10-09T08:45:06.596Z,21.77
2018-10-09T08:47:33.104Z,21.92
2018-10-09T08:49:59.555Z,21.72
2018-10-09T08:52:26.001Z,22.24
2018-10-09T08:54:52.785Z,22.36
2018-10-09T08:57:19.463Z,22.60
2018-10-09T08:59:46.050Z,22.49
2018-10-09T09:02:12.550Z,22.56
2018-10-09T09:04:39.079Z,22.42
2018-10-09T09:07:05.560Z,22.55
2018-10-09T09:09:32.294Z,22.78
2018-10-09T09:11:58.921Z,22.89
2018-10-09T09:14:25.534Z,22.99
2018-10-09T09:16:52.994Z,23.18
2018-10-09T09:19:19.470Z,22.80
2018-10-09T09:21:46.010Z,23.27
2018-10-09T09:24:12.540Z,23.51
2018-10-09T09:26:39.630Z,23.53
2018-10-09T09:29:06.286Z,23.59
2018-10-09T09:31:32.835Z,23.81
2018-10-09T09:33:59.424Z,24.25
2018-10-09T09:36:25.931Z,23.97
2018-10-09T09:38:53.226Z,24.22
2018-10-09T09:41:19.871Z,24.23
2018-10-09T09:43:47.434Z,24.03
2018-10-09T09:46:14.002Z,24.63
2018-10-09T09:48:40.711Z,24.05
2018-10-09T09:51:07.289Z,24.04
2018-10-09T09:53:36.878Z,24.33
2018-10-09T09:56:03.387Z,24.82
2018-10-09T09:58:29.985Z,25.14
2018-10-09T10:00:58.931Z,25.04
2018-10-09T10:03:25.457Z,25.32
2018-10-09T10:05:52.078Z,25.30
2018-10-09T10:08:19.675Z,25.11
2018-10-09T10:10:46.281Z,25.33
2018-10-09T10:13:12.732Z,24.93
2018-10-09T10:15:39.421Z,25.01
2018-10-09T10:18:06.132Z,25.47
2018-10-09T10:20:32.626Z,25.89
2018-10-09T10:22:59.195Z,26.22
2018-10-09T10:25:25.856Z,25.85
2018-10-09T10:27:52.485Z,25.48
2018-10-09T10:30:19.200Z,25.35
2018-10-09T10:32:45.675Z,25.79
2018-10-09T10:35:12.202Z,26.22
2018-10-09T10:37:39.286Z,26.35
2018-10-09T10:40:05.745Z,26.05
2018-10-09T10:42:32.182Z,25.52
2018-10-09T10:44:58.829Z,25.55
2018-10-09T10:47:25.357Z,26.33
2018-10-09T10:49:51.850Z,26.80
2018-10-09T10:52:18.386Z,26.67
2018-10-09T10:54:45.047Z,26.83
2018-10-09T10:57:12.302Z,26.65
2018-10-09T11:02:10.949Z,27.07
2018-10-09T11:04:37.455Z,27.39
2018-10-09T11:07:04.089Z,27.06
2018-10-09T11:09:30.636Z,27.51
2018-10-09T11:11:57.161Z,27.04
2018-10-09T11:14:27.914Z,26.62
2018-10-09T11:16:54.588Z,26.17
2018-10-09T11:19:21.418Z,25.66
2018-10-09T11:21:47.958Z,26.38
2018-10-09T11:24:21.279Z,27.10
2018-10-09T11:26:50.033Z,27.25
2018-10-09T11:29:16.743Z,27.36
2018-10-09T11:31:43.263Z,27.12
2018-10-09T11:34:09.801Z,27.35
2018-10-09T11:36:36.333Z,27.51
2018-10-09T11:39:02.807Z,27.86
2018-10-09T11:41:29.250Z,28.09
2018-10-09T11:43:55.920Z,28.24
2018-10-09T11:46:22.421Z,26.94
2018-10-09T11:48:48.969Z,26.57
2018-10-09T11:51:15.434Z,26.50
2018-10-09T11:53:41.948Z,26.41
2018-10-09T11:56:08.401Z,26.90
2018-10-09T11:58:34.993Z,27.80
2018-10-09T12:01:01.613Z,28.24
2018-10-09T12:03:29.212Z,27.65
2018-10-09T12:05:55.843Z,28.24
2018-10-09T12:08:22.420Z,27.67
2018-10-09T12:10:48.895Z,27.79
2018-10-09T12:13:15.367Z,27.52
2018-10-09T12:15:41.903Z,27.72
2018-10-09T12:18:08.551Z,28.15
2018-10-09T12:20:35.203Z,28.06
2018-10-09T12:23:01.722Z,27.37
2018-10-09T12:25:29.275Z,28.08
2018-10-09T12:27:55.857Z,28.34
2018-10-09T12:30:22.331Z,27.76
2018-10-09T12:32:48.829Z,28.53
2018-10-09T12:35:18.288Z,29.03
2018-10-09T12:37:44.853Z,28.94
2018-10-09T12:40:11.369Z,28.26
2018-10-09T12:42:37.876Z,27.84
2018-10-09T12:45:08.214Z,28.07
2018-10-09T12:47:34.664Z,28.23
2018-10-09T12:50:01.206Z,28.64
2018-10-09T12:52:27.890Z,28.76
2018-10-09T12:54:54.844Z,29.06
2018-10-09T12:57:21.401Z,29.00
2018-10-09T12:59:47.905Z,28.88
2018-10-09T13:02:14.444Z,28.66
2018-10-09T13:04:40.929Z,29.05
2018-10-09T13:07:07.430Z,28.69
2018-10-09T13:09:34.063Z,28.52
2018-10-09T13:12:00.728Z,28.77
2018-10-09T13:14:27.265Z,28.84
2018-10-09T13:16:53.769Z,28.89
2018-10-09T13:19:20.305Z,28.80
2018-10-09T13:21:47.027Z,29.04
2018-10-09T13:24:13.428Z,28.67
2018-10-09T13:26:39.884Z,28.65
2018-10-09T13:29:08.157Z,28.58
2018-10-09T13:31:34.693Z,27.90
2018-10-09T13:34:02.306Z,27.53
2018-10-09T13:36:29.222Z,28.01
2018-10-09T13:38:55.692Z,28.17
2018-10-09T13:41:22.131Z,28.61
2018-10-09T13:43:48.632Z,28.47
2018-10-09T13:46:15.225Z,28.43
2018-10-09T13:48:41.679Z,28.13
2018-10-09T13:51:08.210Z,27.48
2018-10-09T13:53:34.680Z,27.73
2018-10-09T13:56:01.216Z,27.76
2018-10-09T13:58:27.697Z,28.00
2018-10-09T14:00:54.153Z,27.58
2018-10-09T14:03:20.655Z,27.26
2018-10-09T14:08:18.691Z,28.46
2018-10-09T14:10:46.151Z,27.99
2018-10-09T14:13:12.620Z,27.86
2018-10-09T14:15:39.094Z,28.20
2018-10-09T14:18:05.622Z,27.55
2018-10-09T14:20:35.994Z,27.80
2018-10-09T14:23:02.477Z,28.33
2018-10-09T14:25:29.114Z,28.21
2018-10-09T14:27:55.602Z,27.89
2018-10-09T14:30:23.733Z,27.55
2018-10-09T14:32:50.192Z,27.73
2018-10-09T14:35:16.643Z,27.00
2018-10-09T14:40:15.018Z,26.73
2018-10-09T14:42:41.485Z,26.53
2018-10-09T14:45:08.035Z,26.43
2018-10-09T14:47:34.635Z,26.95
2018-10-09T14:50:01.099Z,26.89
2018-10-09T14:52:27.586Z,26.71
2018-10-09T14:54:54.090Z,26.82
2018-10-09T14:57:20.628Z,27.35
2018-10-09T14:59:47.130Z,27.21
2018-10-09T15:02:13.571Z,27.18
2018-10-09T15:04:40.023Z,27.14
2018-10-09T15:07:06.542Z,26.66
2018-10-09T15:09:33.118Z,26.80
2018-10-09T15:12:00.140Z,27.06
2018-10-09T15:14:26.732Z,26.93
2018-10-09T15:16:53.267Z,26.79
2018-10-09T15:19:19.902Z,26.73
2018-10-09T15:21:46.338Z,26.82
2018-10-09T15:24:12.858Z,26.50
2018-10-09T15:26:40.321Z,26.35
2018-10-09T15:29:06.822Z,26.07
2018-10-09T15:31:33.484Z,26.26
2018-10-09T15:34:00.043Z,26.20
2018-10-09T15:36:26.488Z,26.08
2018-10-09T15:38:53.231Z,26.01
2018-10-09T15:41:19.840Z,25.95
2018-10-09T15:43:46.393Z,25.81
2018-10-09T15:46:12.886Z,25.71
2018-10-09T15:48:39.479Z,25.60
2018-10-09T15:51:05.981Z,25.52
2018-10-09T15:53:32.488Z,25.65
2018-10-09T15:55:58.992Z,25.45
2018-10-09T15:58:25.645Z,25.33
2018-10-09T16:00:53.280Z,25.39
2018-10-09T16:03:19.760Z,25.39
2018-10-09T16:05:46.213Z,25.37
2018-10-09T16:08:12.729Z,25.46
2018-10-09T16:10:39.199Z,25.05
2018-10-09T16:13:05.676Z,25.03
2018-10-09T16:15:32.316Z,24.94
2018-10-09T16:17:58.766Z,24.85
2018-10-09T16:20:25.325Z,25.01
2018-10-09T16:22:51.836Z,25.16
2018-10-09T16:25:18.318Z,24.94
2018-10-09T16:27:44.813Z,24.84
2018-10-09T16:30:12.153Z,24.64
2018-10-09T16:32:38.808Z,24.30
2018-10-09T16:35:05.329Z,24.33
2018-10-09T16:37:33.370Z,24.50
2018-10-09T16:39:59.878Z,24.34
2018-10-09T16:42:26.309Z,23.89
2018-10-09T16:44:52.823Z,23.35
2018-10-09T16:47:22.661Z,23.26
2018-10-09T16:49:49.478Z,23.32
2018-10-09T16:52:15.995Z,23.18
2018-10-09T16:54:42.452Z,23.17
2018-10-09T16:57:09.092Z,23.17
2018-10-09T16:59:35.672Z,23.13
2018-10-09T17:02:02.124Z,22.99
2018-10-09T17:04:28.692Z,22.82
2018-10-09T17:06:55.184Z,22.70
2018-10-09T17:09:21.982Z,22.70
2018-10-09T17:11:48.437Z,22.75
2018-10-09T17:14:15.045Z,22.65
2018-10-09T17:16:41.508Z,22.53
2018-10-09T17:19:07.947Z,22.66
2018-10-09T17:21:34.462Z,22.41
2018-10-09T17:24:02.100Z,22.15
2018-10-09T17:26:28.602Z,22.15
2018-10-09T17:28:55.150Z,22.12
2018-10-09T17:31:21.727Z,22.08
2018-10-09T17:33:48.248Z,22.05
2018-10-09T17:36:14.797Z,21.98
2018-10-09T17:38:41.357Z,22.09
2018-10-09T17:41:07.852Z,22.11
2018-10-09T17:43:34.655Z,21.92
2018-10-09T17:46:01.155Z,21.77
2018-10-09T17:48:27.682Z,21.46
2018-10-09T17:50:54.989Z,21.26
2018-10-09T17:53:21.490Z,21.14
2018-10-09T17:55:47.973Z,21.12
2018-10-09T17:58:15.853Z,21.15
2018-10-09T18:00:42.317Z,21.10
2018-10-09T18:03:08.875Z,21.19
2018-10-09T18:05:35.478Z,21.28
2018-10-09T18:10:39.696Z,21.13
2018-10-09T18:13:06.173Z,21.07
2018-10-09T18:15:32.647Z,21.09
2018-10-09T18:20:32.925Z,20.87
2018-10-09T18:22:59.520Z,21.07
2018-10-09T18:25:26.100Z,21.07
2018-10-09T18:27:52.571Z,20.78
2018-10-09T18:30:19.065Z,20.58
2018-10-09T18:32:45.654Z,20.55
2018-10-09T18:35:12.156Z,20.50
2018-10-09T18:37:38.616Z,20.62
2018-10-09T18:40:05.070Z,20.33
2018-10-09T18:42:31.607Z,20.23
2018-10-09T18:44:58.289Z,20.29
2018-10-09T18:47:24.774Z,20.28
2018-10-09T18:49:51.234Z,20.31
2018-10-09T18:52:18.695Z,20.18
2018-10-09T18:54:45.155Z,20.08
2018-10-09T18:57:11.629Z,20.12
2018-10-09T18:59:38.149Z,20.25
2018-10-09T19:02:04.611Z,20.23
2018-10-09T19:04:31.117Z,20.32
2018-10-09T19:06:57.800Z,20.15
2018-10-09T19:09:24.441Z,20.19
2018-10-09T19:11:50.970Z,20.00
2018-10-09T19:14:17.465Z,19.88
2018-10-09T19:16:44.008Z,19.74
2018-10-09T19:19:10.598Z,19.65
2018-10-09T19:21:37.199Z,19.67
2018-10-09T19:24:03.652Z,19.71
2018-10-09T19:26:30.135Z,19.93
2018-10-09T19:28:56.679Z,19.79
2018-10-09T19:31:23.176Z,19.64
2018-10-09T19:33:50.359Z,19.58
2018-10-09T19:36:16.947Z,19.67
2018-10-09T19:38:46.489Z,19.84
2018-10-09T19:41:13.029Z,19.72
2018-10-09T19:43:39.559Z,19.48
2018-10-09T19:46:06.045Z,19.39
2018-10-09T19:48:32.540Z,19.35
2018-10-09T19:50:59.210Z,19.39
2018-10-09T19:53:25.874Z,19.29
2018-10-09T19:55:53.417Z,19.21
2018-10-09T19:58:20.800Z,19.10
2018-10-09T20:00:47.603Z,19.14
2018-10-09T20:03:14.316Z,19.33
2018-10-09T20:05:41.381Z,19.16
2018-10-09T20:08:07.863Z,19.02
2018-10-09T20:10:34.332Z,18.93
2018-10-09T20:13:01.111Z,19.05
2018-10-09T20:15:28.725Z,19.17
2018-10-09T20:17:55.219Z,19.13
2018-10-09T20:22:54.069Z,18.96
2018-10-09T20:25:20.649Z,18.82
2018-10-09T20:27:47.143Z,18.69
2018-10-09T20:30:13.636Z,18.53
2018-10-09T20:32:40.153Z,18.67
2018-10-09T20:35:06.643Z,18.82
2018-10-09T20:37:33.355Z,18.83
2018-10-09T20:39:59.833Z,18.70
2018-10-09T20:42:26.769Z,18.50
2018-10-09T20:44:53.322Z,18.41
2018-10-09T20:47:19.950Z,18.41
2018-10-09T20:49:46.504Z,18.28
2018-10-09T20:54:45.127Z,18.22
2018-10-09T20:57:11.580Z,18.21
2018-10-09T20:59:39.747Z,18.31
2018-10-09T21:02:07.900Z,18.58
2018-10-09T21:04:34.423Z,18.54
2018-10-09T21:07:00.852Z,18.47
2018-10-09T21:09:27.513Z,18.40
2018-10-09T21:12:01.341Z,18.39
2018-10-09T21:14:27.831Z,18.29
2018-10-09T21:16:54.338Z,18.16
2018-10-09T21:19:21.038Z,18.38
2018-10-09T21:21:47.550Z,18.47
2018-10-09T21:24:14.028Z,18.36
2018-10-09T21:26:41.944Z,18.22
2018-10-09T21:29:08.436Z,18.20
2018-10-09T21:31:34.957Z,18.54
2018-10-09T21:34:01.467Z,18.15
2018-10-09T21:36:27.976Z,17.94
2018-10-09T21:38:54.652Z,17.73
2018-10-09T21:41:21.150Z,17.64
2018-10-09T21:43:47.717Z,17.64
2018-10-09T21:46:14.356Z,17.55
2018-10-09T21:48:41.188Z,17.52
2018-10-09T21:51:07.701Z,17.50
2018-10-09T21:53:34.388Z,17.64
2018-10-09T21:56:01.154Z,17.71
2018-10-09T21:58:27.645Z,17.81
2018-10-09T22:00:54.286Z,17.83
2018-10-09T22:03:20.782Z,17.69
2018-10-09T22:05:47.276Z,17.72
2018-10-09T22:08:13.807Z,17.78
2018-10-09T22:10:40.406Z,17.57
2018-10-09T22:13:07.020Z,17.52
2018-10-09T22:15:33.480Z,17.59
2018-10-09T22:18:00.255Z,17.69
2018-10-09T22:20:26.756Z,17.72
2018-10-09T22:22:53.412Z,17.77
2018-10-09T22:25:19.993Z,17.91
2018-10-09T22:27:46.494Z,17.66
2018-10-09T22:30:15.774Z,17.48
2018-10-09T22:32:42.229Z,17.32
2018-10-09T22:35:09.083Z,17.40
2018-10-09T22:37:35.556Z,17.37
2018-10-09T22:40:02.026Z,17.33
2018-10-09T22:42:28.533Z,17.27
2018-10-09T22:44:55.951Z,17.33
2018-10-09T22:47:22.473Z,17.08
2018-10-09T22:49:48.984Z,16.84
2018-10-09T22:52:15.504Z,16.90
2018-10-09T22:54:42.029Z,16.90
2018-10-09T22:57:08.504Z,16.93
2018-10-09T22:59:35.032Z,17.06
2018-10-09T23:02:01.763Z,17.13
2018-10-09T23:04:28.289Z,17.17
2018-10-09T23:06:54.813Z,17.00
2018-10-09T23:09:21.304Z,16.67
2018-10-09T23:11:47.803Z,16.64
2018-10-09T23:14:14.458Z,16.62
2018-10-09T23:16:40.940Z,16.71
2018-10-09T23:19:07.467Z,16.91
2018-10-09T23:21:34.032Z,17.02
2018-10-09T23:24:03.317Z,16.71
2018-10-09T23:26:31.124Z,16.94
2018-10-09T23:29:00.177Z,17.13
2018-10-09T23:31:27.433Z,17.10
2018-10-09T23:33:55.585Z,16.96
2018-10-09T23:36:22.637Z,17.39
2018-10-09T23:38:49.188Z,17.45
2018-10-09T23:41:17.100Z,17.11
2018-10-09T23:43:45.589Z,16.72
2018-10-09T23:46:13.054Z,16.80
2018-10-09T23:51:12.022Z,16.64
2018-10-09T23:53:39.484Z,16.41
2018-10-09T23:56:07.125Z,16.60
2018-10-09T23:58:36.295Z,16.59
